Time;durP1;ratioP1;P1;durP2;ratioP2;P2;SDS_P1;SDS_P2;PMS_P1;PMS_P2;Temp;Humidity;BMP_temperature;BMP_pressure;BME280_temperature;BME280_humidity;BME280_pressure;Samples;Min_cycle;Max_cycle;Signal;HPM_P1;HPM_P2
2024/03/07 00:00:16;;;;;;;44.75;26.77;;;;;;;;;;5087645;28;20397;-59
2024/03/07 00:02:43;;;;;;;45.47;27.33;;;;;;;;;;5080609;28;20417;-59
2024/03/07 00:05:10;;;;;;;44.15;26.38;;;;;;;;;;5091210;28;20397;-59
2024/03/07 00:07:39;;;;;;;46.67;26.88;;;;;;;;;;5093972;28;20052;-60
2024/03/07 00:10:07;;;;;;;42.78;26.33;;;;;;;;;;5092627;28;20054;-59
2024/03/07 00:12:35;;;;;;;44.35;25.85;;;;;;;;;;5092305;28;20055;-57
2024/03/07 00:15:02;;;;;;;45.90;26.88;;;;;;;;;;5093296;28;20501;-59
2024/03/07 00:17:29;;;;;;;44.33;26.65;;;;;;;;;;5093405;28;20059;-59
2024/03/07 00:19:56;;;;;;;46.53;27.33;;;;;;;;;;5087355;28;20052;-60
2024/03/07 00:22:23;;;;;;;45.53;28.55;;;;;;;;;;5091823;28;20055;-59
2024/03/07 00:24:51;;;;;;;41.83;26.23;;;;;;;;;;5087940;28;20049;-59
2024/03/07 00:27:18;;;;;;;44.63;26.67;;;;;;;;;;5084162;28;20052;-59
2024/03/07 00:29:52;;;;;;;45.10;27.30;;;;;;;;;;5083807;28;20059;-58
2024/03/07 00:32:19;;;;;;;45.78;27.83;;;;;;;;;;5089550;28;20154;-58
2024/03/07 00:34:46;;;;;;;42.15;25.83;;;;;;;;;;5092778;28;20126;-59
2024/03/07 00:37:13;;;;;;;42.50;25.73;;;;;;;;;;5092033;28;20048;-59
2024/03/07 00:39:40;;;;;;;48.45;26.27;;;;;;;;;;5073759;28;20064;-59
2024/03/07 00:42:08;;;;;;;43.58;26.42;;;;;;;;;;5081695;28;20047;-59
2024/03/07 00:44:35;;;;;;;37.47;25.02;;;;;;;;;;5086548;28;20052;-59
2024/03/07 00:47:03;;;;;;;40.72;26.15;;;;;;;;;;5088836;28;20056;-59
2024/03/07 00:49:30;;;;;;;43.95;26.27;;;;;;;;;;5092499;28;20500;-59
2024/03/07 00:51:56;;;;;;;47.13;27.67;;;;;;;;;;5092332;28;20505;-59
2024/03/07 00:54:23;;;;;;;54.13;30.27;;;;;;;;;;5091267;28;20051;-59
2024/03/07 00:56:50;;;;;;;56.80;31.75;;;;;;;;;;5093217;28;20527;-58
2024/03/07 00:59:18;;;;;;;55.10;31.23;;;;;;;;;;5090303;28;20052;-58
2024/03/07 01:01:45;;;;;;;52.80;30.95;;;;;;;;;;5087348;28;20063;-59
2024/03/07 01:04:12;;;;;;;51.08;30.35;;;;;;;;;;5091697;28;20047;-59
2024/03/07 01:06:40;;;;;;;46.50;28.00;;;;;;;;;;5092294;28;20052;-59
2024/03/07 01:09:13;;;;;;;62.63;34.90;;;;;;;;;;5090334;28;20044;-57
2024/03/07 01:11:40;;;;;;;69.85;29.83;;;;;;;;;;5090022;28;20531;-57
2024/03/07 01:14:07;;;;;;;55.72;29.85;;;;;;;;;;5090422;28;20044;-59
2024/03/07 01:16:35;;;;;;;106.25;31.50;;;;;;;;;;5084969;28;20051;-59
2024/03/07 01:19:03;;;;;;;128.73;34.60;;;;;;;;;;5091650;28;20051;-59
2024/03/07 01:21:30;;;;;;;141.38;32.83;;;;;;;;;;5092793;28;20052;-59
2024/03/07 01:23:57;;;;;;;148.88;34.08;;;;;;;;;;5092085;28;20043;-59
2024/03/07 01:26:24;;;;;;;144.05;35.40;;;;;;;;;;5092987;28;20048;-60
2024/03/07 01:28:52;;;;;;;130.15;34.50;;;;;;;;;;5090518;28;20386;-59
2024/03/07 01:31:19;;;;;;;161.13;34.70;;;;;;;;;;5090512;28;20409;-60
2024/03/07 01:33:47;;;;;;;122.35;32.83;;;;;;;;;;5088980;28;20508;-60
2024/03/07 01:36:14;;;;;;;208.90;39.50;;;;;;;;;;5087790;28;20048;-61
2024/03/07 01:38:40;;;;;;;66.38;30.85;;;;;;;;;;5087830;28;20166;-59
2024/03/07 01:41:07;;;;;;;95.63;37.28;;;;;;;;;;5090265;28;20055;-60
2024/03/07 01:43:34;;;;;;;58.97;30.25;;;;;;;;;;5090830;28;20509;-58
2024/03/07 01:46:01;;;;;;;53.97;28.40;;;;;;;;;;5090121;28;20051;-60
2024/03/07 01:48:29;;;;;;;57.42;29.52;;;;;;;;;;5089934;28;20048;-60
2024/03/07 01:50:57;;;;;;;73.93;28.00;;;;;;;;;;5090745;28;20052;-60
2024/03/07 01:53:25;;;;;;;81.03;30.27;;;;;;;;;;5089870;28;20052;-59
2024/03/07 01:55:53;;;;;;;109.30;30.05;;;;;;;;;;5091787;28;20059;-60
2024/03/07 01:58:21;;;;;;;100.78;30.52;;;;;;;;;;5085981;28;20048;-60
2024/03/07 02:00:48;;;;;;;82.82;29.08;;;;;;;;;;5082023;28;20052;-60
2024/03/07 02:03:15;;;;;;;78.78;29.17;;;;;;;;;;5084998;28;20052;-60
2024/03/07 02:05:42;;;;;;;89.15;29.08;;;;;;;;;;5090458;28;20397;-59
2024/03/07 02:08:11;;;;;;;74.53;29.30;;;;;;;;;;5091881;28;20063;-60
2024/03/07 02:10:38;;;;;;;102.32;29.27;;;;;;;;;;5075215;28;20054;-60
2024/03/07 02:13:04;;;;;;;90.13;28.88;;;;;;;;;;5091234;28;20055;-60
2024/03/07 02:15:32;;;;;;;127.22;30.77;;;;;;;;;;5092438;28;20051;-60
2024/03/07 02:17:59;;;;;;;166.35;33.88;;;;;;;;;;5091488;28;20056;-60
2024/03/07 02:20:27;;;;;;;115.03;31.77;;;;;;;;;;5088926;28;20473;-60
2024/03/07 02:22:56;;;;;;;78.80;26.63;;;;;;;;;;5085105;28;20052;-60
2024/03/07 02:25:23;;;;;;;77.93;27.50;;;;;;;;;;5092919;28;20508;-58
2024/03/07 02:27:50;;;;;;;69.10;26.02;;;;;;;;;;5082908;28;20067;-59
2024/03/07 02:30:18;;;;;;;116.90;28.98;;;;;;;;;;5092772;28;20048;-60
2024/03/07 02:32:51;;;;;;;110.97;27.20;;;;;;;;;;5098021;28;20056;-60
2024/03/07 02:35:19;;;;;;;103.60;27.40;;;;;;;;;;5097712;28;20048;-60
2024/03/07 02:37:46;;;;;;;181.43;30.63;;;;;;;;;;5097714;28;20047;-60
2024/03/07 02:40:16;;;;;;;93.32;27.88;;;;;;;;;;5081967;28;20048;-60
2024/03/07 02:42:42;;;;;;;87.03;25.70;;;;;;;;;;5080385;28;20052;-60
2024/03/07 02:45:10;;;;;;;133.15;26.52;;;;;;;;;;5088770;28;20052;-60
2024/03/07 02:47:38;;;;;;;155.65;30.38;;;;;;;;;;5098750;28;20055;-60
2024/03/07 02:50:06;;;;;;;99.05;26.73;;;;;;;;;;5096908;28;20056;-60
2024/03/07 02:52:33;;;;;;;81.88;25.77;;;;;;;;;;5095544;28;20057;-60
2024/03/07 02:55:00;;;;;;;84.40;25.35;;;;;;;;;;5096769;28;20044;-60
2024/03/07 02:57:28;;;;;;;75.78;25.35;;;;;;;;;;5096642;28;20051;-59
2024/03/07 02:59:54;;;;;;;59.92;24.23;;;;;;;;;;5095295;28;20496;-59
2024/03/07 03:02:21;;;;;;;52.10;23.83;;;;;;;;;;5095145;28;20413;-60
2024/03/07 03:04:48;;;;;;;75.55;26.08;;;;;;;;;;5096598;28;20048;-60
2024/03/07 03:07:15;;;;;;;83.32;24.77;;;;;;;;;;5095548;28;20432;-60
2024/03/07 03:09:43;;;;;;;75.72;25.45;;;;;;;;;;5087939;28;20059;-58
2024/03/07 03:12:10;;;;;;;67.07;24.70;;;;;;;;;;5089746;28;20509;-60
2024/03/07 03:14:39;;;;;;;88.88;26.98;;;;;;;;;;5094285;28;20044;-60
2024/03/07 03:17:08;;;;;;;92.40;25.33;;;;;;;;;;5093224;28;20044;-65
2024/03/07 03:19:36;;;;;;;110.47;25.88;;;;;;;;;;5097494;28;20056;-60
2024/03/07 03:22:03;;;;;;;132.77;27.67;;;;;;;;;;5094683;28;20048;-60
2024/03/07 03:24:30;;;;;;;168.77;28.92;;;;;;;;;;5091378;28;20059;-60
2024/03/07 03:26:57;;;;;;;194.35;30.23;;;;;;;;;;5097740;28;20059;-60
2024/03/07 03:29:24;;;;;;;233.93;33.97;;;;;;;;;;5098125;28;20515;-60
2024/03/07 03:31:52;;;;;;;191.82;27.15;;;;;;;;;;5096873;28;20056;-60
2024/03/07 03:34:19;;;;;;;306.63;35.88;;;;;;;;;;5095151;28;20049;-60
2024/03/07 03:36:45;;;;;;;107.32;25.30;;;;;;;;;;5096643;28;20056;-59
2024/03/07 03:39:13;;;;;;;77.55;23.60;;;;;;;;;;5083172;28;20060;-60
2024/03/07 03:41:40;;;;;;;169.05;26.23;;;;;;;;;;5082591;28;20544;-59
2024/03/07 03:44:07;;;;;;;97.22;22.90;;;;;;;;;;5080884;28;20048;-60
2024/03/07 03:46:34;;;;;;;122.65;25.17;;;;;;;;;;5093566;28;20515;-59
2024/03/07 03:49:02;;;;;;;164.93;26.25;;;;;;;;;;5092755;28;20048;-60
2024/03/07 03:51:29;;;;;;;114.55;24.67;;;;;;;;;;5091725;28;20067;-60
2024/03/07 03:53:56;;;;;;;51.38;21.17;;;;;;;;;;5092962;28;20059;-59
2024/03/07 03:56:24;;;;;;;50.25;22.05;;;;;;;;;;5078111;28;20379;-59
2024/03/07 03:58:51;;;;;;;60.60;20.38;;;;;;;;;;5075274;28;20052;-60
2024/03/07 04:01:18;;;;;;;47.33;20.48;;;;;;;;;;5082158;28;20055;-60
2024/03/07 04:03:46;;;;;;;88.07;21.27;;;;;;;;;;5089197;28;20489;-60
2024/03/07 04:06:15;;;;;;;38.00;19.45;;;;;;;;;;5091297;28;20055;-60
2024/03/07 04:08:41;;;;;;;48.13;19.73;;;;;;;;;;5090091;28;20051;-60
2024/03/07 04:11:09;;;;;;;58.53;19.08;;;;;;;;;;5092567;28;20051;-60
2024/03/07 04:13:36;;;;;;;56.03;19.08;;;;;;;;;;5091377;28;20059;-60
2024/03/07 04:16:03;;;;;;;59.70;20.38;;;;;;;;;;5091535;28;20377;-60
2024/03/07 04:18:32;;;;;;;54.72;19.05;;;;;;;;;;5087411;28;20052;-60
2024/03/07 04:20:58;;;;;;;62.17;19.92;;;;;;;;;;5093449;28;20055;-59
2024/03/07 04:23:27;;;;;;;64.72;21.23;;;;;;;;;;5092966;28;20480;-59
2024/03/07 04:25:56;;;;;;;73.80;20.45;;;;;;;;;;5093421;28;20055;-60
2024/03/07 04:28:22;;;;;;;60.30;19.48;;;;;;;;;;5093759;28;20158;-60
2024/03/07 04:30:49;;;;;;;348.48;38.75;;;;;;;;;;5084865;28;20052;-59
2024/03/07 04:33:16;;;;;;;44.40;18.88;;;;;;;;;;5092518;28;20048;-59
2024/03/07 04:35:43;;;;;;;63.25;20.90;;;;;;;;;;5089646;28;20044;-60
2024/03/07 04:38:14;;;;;;;54.65;21.52;;;;;;;;;;5090560;28;20527;-60
2024/03/07 04:40:43;;;;;;;127.63;25.55;;;;;;;;;;5093143;28;20505;-60
2024/03/07 04:43:10;;;;;;;102.30;22.60;;;;;;;;;;5093310;28;20059;-59
2024/03/07 04:45:37;;;;;;;172.18;27.95;;;;;;;;;;5091209;28;20059;-59
2024/03/07 04:48:04;;;;;;;116.00;23.38;;;;;;;;;;5092773;28;20056;-60
2024/03/07 04:50:31;;;;;;;74.00;22.17;;;;;;;;;;5092111;28;20433;-59
2024/03/07 04:52:58;;;;;;;93.85;22.20;;;;;;;;;;5094038;28;20051;-59
2024/03/07 04:55:25;;;;;;;58.28;19.50;;;;;;;;;;5094139;28;20048;-60
2024/03/07 04:57:53;;;;;;;57.92;19.92;;;;;;;;;;5093416;28;20052;-60
2024/03/07 05:00:20;;;;;;;74.65;20.45;;;;;;;;;;5093770;28;20052;-60
2024/03/07 05:02:48;;;;;;;88.40;21.33;;;;;;;;;;5092367;28;20358;-60
2024/03/07 05:05:14;;;;;;;60.03;19.13;;;;;;;;;;5093505;28;20051;-60
2024/03/07 05:07:41;;;;;;;106.72;21.42;;;;;;;;;;5093860;28;20063;-60
2024/03/07 05:10:09;;;;;;;255.85;35.17;;;;;;;;;;5093513;28;20051;-60
2024/03/07 05:12:36;;;;;;;72.28;20.67;;;;;;;;;;5090530;28;20052;-59
2024/03/07 05:15:05;;;;;;;98.20;21.02;;;;;;;;;;5091943;28;20063;-60
2024/03/07 05:17:34;;;;;;;60.67;20.73;;;;;;;;;;5090627;28;20482;-60
2024/03/07 05:20:01;;;;;;;80.20;23.13;;;;;;;;;;5092370;28;20056;-60
2024/03/07 05:22:30;;;;;;;36.78;18.90;;;;;;;;;;5092597;28;20462;-60
2024/03/07 05:24:58;;;;;;;239.13;37.72;;;;;;;;;;5092706;28;20405;-59
2024/03/07 05:27:25;;;;;;;47.90;19.55;;;;;;;;;;5092552;28;20485;-59
2024/03/07 05:29:52;;;;;;;51.78;19.88;;;;;;;;;;5092152;28;20059;-60
2024/03/07 05:32:22;;;;;;;39.35;18.92;;;;;;;;;;5088121;28;20055;-60
2024/03/07 05:34:49;;;;;;;51.83;19.17;;;;;;;;;;5090389;28;20048;-59
2024/03/07 05:37:16;;;;;;;61.78;22.10;;;;;;;;;;5079253;28;20043;-60
2024/03/07 05:39:43;;;;;;;29.10;17.50;;;;;;;;;;5090863;28;20055;-58
2024/03/07 05:42:13;;;;;;;31.67;18.25;;;;;;;;;;5092261;28;20051;-60
2024/03/07 05:44:41;;;;;;;29.98;17.80;;;;;;;;;;5092980;28;20088;-60
2024/03/07 05:47:08;;;;;;;47.85;21.25;;;;;;;;;;5092039;28;20048;-60
2024/03/07 05:49:37;;;;;;;32.28;18.50;;;;;;;;;;5091648;28;20146;-60
2024/03/07 05:52:05;;;;;;;27.08;19.40;;;;;;;;;;5092818;28;20048;-60
2024/03/07 05:54:32;;;;;;;28.88;19.40;;;;;;;;;;5092485;28;20052;-60
2024/03/07 05:56:59;;;;;;;33.97;20.80;;;;;;;;;;5092950;28;20048;-60
2024/03/07 05:59:28;;;;;;;33.85;21.90;;;;;;;;;;5091299;28;20056;-60
2024/03/07 06:01:55;;;;;;;33.78;21.00;;;;;;;;;;5089684;28;20404;-59
2024/03/07 06:04:22;;;;;;;33.53;20.88;;;;;;;;;;5090477;28;20055;-58
2024/03/07 06:06:50;;;;;;;33.15;21.13;;;;;;;;;;5090778;28;20040;-59
2024/03/07 06:09:21;;;;;;;67.50;26.60;;;;;;;;;;5090181;28;20052;-60
2024/03/07 06:11:48;;;;;;;36.67;20.73;;;;;;;;;;5088487;28;20051;-58
2024/03/07 06:14:16;;;;;;;38.35;21.33;;;;;;;;;;5090236;28;20048;-58
2024/03/07 06:16:42;;;;;;;32.60;21.45;;;;;;;;;;5086933;28;20066;-57
2024/03/07 06:19:09;;;;;;;32.25;21.42;;;;;;;;;;5091730;28;20058;-57
2024/03/07 06:21:39;;;;;;;33.25;21.38;;;;;;;;;;5091259;28;20051;-58
2024/03/07 06:24:08;;;;;;;29.30;19.38;;;;;;;;;;5090872;28;20401;-57
2024/03/07 06:26:45;;;;;;;45.03;20.50;;;;;;;;;;5089778;28;20044;-57
2024/03/07 06:29:13;;;;;;;51.47;21.27;;;;;;;;;;5074755;28;20071;-57
2024/03/07 06:31:39;;;;;;;30.23;20.55;;;;;;;;;;5091960;28;20063;-57
2024/03/07 06:34:06;;;;;;;46.70;20.30;;;;;;;;;;5092455;28;20060;-57
2024/03/07 06:36:33;;;;;;;32.40;21.45;;;;;;;;;;5083624;28;20504;-57
2024/03/07 06:39:00;;;;;;;56.70;22.92;;;;;;;;;;5091929;28;20063;-57
2024/03/07 06:41:28;;;;;;;63.45;23.33;;;;;;;;;;5092070;28;20043;-58
2024/03/07 06:43:55;;;;;;;82.78;21.67;;;;;;;;;;5086478;28;20059;-58
2024/03/07 06:46:23;;;;;;;44.50;19.52;;;;;;;;;;5090533;28;20056;-58
2024/03/07 06:48:51;;;;;;;125.35;22.25;;;;;;;;;;5091549;28;20405;-58
2024/03/07 06:51:18;;;;;;;68.32;22.58;;;;;;;;;;5079885;28;20469;-57
2024/03/07 06:53:45;;;;;;;37.17;20.55;;;;;;;;;;5088621;28;20044;-58
2024/03/07 06:56:12;;;;;;;81.40;23.00;;;;;;;;;;5089966;28;20489;-57
2024/03/07 06:58:40;;;;;;;85.07;22.00;;;;;;;;;;5082997;28;20044;-58
2024/03/07 07:01:10;;;;;;;47.28;22.17;;;;;;;;;;5088512;28;20048;-57
2024/03/07 07:03:37;;;;;;;55.40;21.60;;;;;;;;;;5087625;28;20044;-57
2024/03/07 07:06:05;;;;;;;77.43;21.80;;;;;;;;;;5088330;28;20397;-57
2024/03/07 07:08:32;;;;;;;74.65;21.35;;;;;;;;;;5088751;28;20456;-57
2024/03/07 07:10:59;;;;;;;42.70;20.60;;;;;;;;;;5086840;28;20059;-57
2024/03/07 07:13:26;;;;;;;31.85;19.67;;;;;;;;;;5094015;28;20462;-58
2024/03/07 07:15:54;;;;;;;25.35;18.23;;;;;;;;;;5095858;28;20060;-57
2024/03/07 07:18:23;;;;;;;25.58;19.88;;;;;;;;;;5095439;28;20494;-58
2024/03/07 07:20:51;;;;;;;26.33;19.33;;;;;;;;;;5095903;28;20059;-58
2024/03/07 07:23:18;;;;;;;27.58;19.58;;;;;;;;;;5084735;28;20044;-58
2024/03/07 07:25:46;;;;;;;24.92;18.85;;;;;;;;;;5080842;28;20044;-58
2024/03/07 07:28:13;;;;;;;24.13;18.15;;;;;;;;;;5095665;28;20452;-58
2024/03/07 07:30:40;;;;;;;24.85;18.55;;;;;;;;;;5094778;28;20052;-58
2024/03/07 07:33:08;;;;;;;26.10;19.00;;;;;;;;;;5089609;28;20420;-58
2024/03/07 07:35:35;;;;;;;31.67;18.23;;;;;;;;;;5094630;28;20048;-58
2024/03/07 07:38:02;;;;;;;47.28;22.00;;;;;;;;;;5092298;28;20458;-57
2024/03/07 07:40:31;;;;;;;52.20;23.02;;;;;;;;;;5094601;28;20063;-58
2024/03/07 07:42:57;;;;;;;27.70;20.57;;;;;;;;;;5095259;28;20527;-58
2024/03/07 07:45:25;;;;;;;31.02;20.10;;;;;;;;;;5095264;28;20075;-58
2024/03/07 07:47:52;;;;;;;29.15;18.92;;;;;;;;;;5095049;28;20067;-58
2024/03/07 07:50:21;;;;;;;31.38;20.42;;;;;;;;;;5095000;28;20063;-57
2024/03/07 07:52:49;;;;;;;29.13;18.63;;;;;;;;;;5095206;28;20073;-56
2024/03/07 07:55:17;;;;;;;24.20;18.90;;;;;;;;;;5093145;28;20044;-58
2024/03/07 07:57:44;;;;;;;25.20;19.58;;;;;;;;;;5093895;28;20052;-57
2024/03/07 08:00:21;;;;;;;27.55;19.35;;;;;;;;;;5094540;28;20066;-58
2024/03/07 08:02:49;;;;;;;24.55;18.33;;;;;;;;;;5095048;28;20055;-58
2024/03/07 08:05:17;;;;;;;27.60;19.35;;;;;;;;;;5095143;28;20052;-58
2024/03/07 08:07:46;;;;;;;26.45;19.08;;;;;;;;;;5094680;28;20412;-58
2024/03/07 08:10:12;;;;;;;27.77;19.38;;;;;;;;;;5093562;28;20055;-58
2024/03/07 08:12:43;;;;;;;31.55;21.17;;;;;;;;;;5091331;28;20118;-58
2024/03/07 08:15:13;;;;;;;27.58;20.25;;;;;;;;;;5091253;28;20056;-57
2024/03/07 08:17:42;;;;;;;29.20;21.95;;;;;;;;;;5094334;28;20055;-58
2024/03/07 08:20:11;;;;;;;31.50;22.95;;;;;;;;;;5074491;28;20435;-58
2024/03/07 08:22:38;;;;;;;33.42;22.92;;;;;;;;;;5074421;28;20056;-58
2024/03/07 08:25:09;;;;;;;35.80;24.80;;;;;;;;;;5058423;28;20059;-58
2024/03/07 08:27:36;;;;;;;30.77;22.88;;;;;;;;;;5054197;28;20060;-58
2024/03/07 08:30:03;;;;;;;32.85;23.58;;;;;;;;;;5054319;28;20068;-58
2024/03/07 08:32:29;;;;;;;32.50;24.02;;;;;;;;;;5051386;28;20049;-58
2024/03/07 08:34:56;;;;;;;32.80;24.35;;;;;;;;;;5052393;28;20060;-58
2024/03/07 08:37:23;;;;;;;33.17;24.83;;;;;;;;;;5054726;28;20049;-58
2024/03/07 08:39:52;;;;;;;32.85;24.50;;;;;;;;;;5053537;28;20483;-58
2024/03/07 08:42:20;;;;;;;33.58;24.92;;;;;;;;;;5053844;28;20056;-56
2024/03/07 08:44:47;;;;;;;34.28;24.80;;;;;;;;;;5050889;28;20052;-57
2024/03/07 08:47:13;;;;;;;33.58;23.75;;;;;;;;;;5047794;28;20045;-56
2024/03/07 08:49:40;;;;;;;32.90;23.70;;;;;;;;;;5049585;28;20169;-57
2024/03/07 08:52:08;;;;;;;31.95;24.50;;;;;;;;;;5051725;28;20592;-57
2024/03/07 08:54:35;;;;;;;34.97;24.98;;;;;;;;;;5052790;28;20060;-57
2024/03/07 08:57:01;;;;;;;32.78;23.80;;;;;;;;;;5052340;28;20052;-57
2024/03/07 08:59:30;;;;;;;31.83;22.80;;;;;;;;;;5051870;28;20052;-57
2024/03/07 09:01:56;;;;;;;26.48;20.65;;;;;;;;;;5048965;28;20383;-57
2024/03/07 09:04:23;;;;;;;27.35;21.55;;;;;;;;;;5050519;28;20418;-57
2024/03/07 09:06:50;;;;;;;29.52;22.10;;;;;;;;;;5049414;28;20076;-57
2024/03/07 09:09:20;;;;;;;27.73;21.23;;;;;;;;;;5053240;28;20053;-57
2024/03/07 09:11:47;;;;;;;29.38;20.27;;;;;;;;;;5053608;28;20378;-57
2024/03/07 09:14:14;;;;;;;25.15;20.55;;;;;;;;;;5053630;28;20053;-57
2024/03/07 09:16:43;;;;;;;25.15;19.92;;;;;;;;;;5058779;28;20048;-57
2024/03/07 09:19:13;;;;;;;29.05;20.42;;;;;;;;;;5084036;28;20064;-56
2024/03/07 09:21:41;;;;;;;25.77;20.52;;;;;;;;;;5093497;28;20052;-57
2024/03/07 09:24:08;;;;;;;23.95;19.90;;;;;;;;;;5092840;28;20056;-57
2024/03/07 09:26:35;;;;;;;23.27;18.73;;;;;;;;;;5093388;28;20056;-57
2024/03/07 09:29:05;;;;;;;22.63;19.45;;;;;;;;;;5092953;28;20052;-57
2024/03/07 09:31:32;;;;;;;22.15;18.73;;;;;;;;;;5093411;28;20056;-57
2024/03/07 09:34:01;;;;;;;21.80;17.75;;;;;;;;;;5093736;28;20449;-57
2024/03/07 09:36:27;;;;;;;20.17;17.83;;;;;;;;;;5093126;28;20056;-57
2024/03/07 09:38:54;;;;;;;22.52;18.48;;;;;;;;;;5092131;28;20043;-57
2024/03/07 09:41:24;;;;;;;21.17;18.33;;;;;;;;;;5093138;28;20052;-57
2024/03/07 09:43:54;;;;;;;21.40;17.88;;;;;;;;;;5093028;28;20496;-57
2024/03/07 09:46:20;;;;;;;;;;;;;;;;;;5094192;28;20409;-57
2024/03/07 09:48:47;;;;;;;22.33;18.90;;;;;;;;;;5093096;28;19920;-57
2024/03/07 09:51:17;;;;;;;20.75;18.15;;;;;;;;;;5093045;28;20051;-57
2024/03/07 09:53:44;;;;;;;19.70;16.17;;;;;;;;;;5092697;28;20051;-57
2024/03/07 09:56:13;;;;;;;20.92;16.60;;;;;;;;;;5092913;28;20462;-57
2024/03/07 09:58:40;;;;;;;18.13;15.38;;;;;;;;;;5093081;28;20055;-57
2024/03/07 10:01:11;;;;;;;19.38;15.73;;;;;;;;;;5093065;28;20047;-57
2024/03/07 10:03:39;;;;;;;18.85;14.95;;;;;;;;;;5092655;28;20055;-57
2024/03/07 10:06:06;;;;;;;18.60;15.68;;;;;;;;;;5092894;28;20056;-57
2024/03/07 10:08:34;;;;;;;17.25;14.07;;;;;;;;;;5090703;28;20055;-58
2024/03/07 10:11:01;;;;;;;16.83;15.02;;;;;;;;;;5090535;28;20510;-57
2024/03/07 10:13:28;;;;;;;16.33;14.60;;;;;;;;;;5088877;28;20500;-57
2024/03/07 10:15:59;;;;;;;14.65;13.15;;;;;;;;;;5092405;28;20055;-58
2024/03/07 10:18:27;;;;;;;16.23;14.40;;;;;;;;;;5072226;28;20056;-57
2024/03/07 10:20:54;;;;;;;15.48;13.80;;;;;;;;;;5080401;28;20055;-57
2024/03/07 10:23:21;;;;;;;15.15;13.65;;;;;;;;;;5090413;28;20054;-57
2024/03/07 10:25:49;;;;;;;15.63;14.00;;;;;;;;;;5092799;28;20055;-57
2024/03/07 10:28:17;;;;;;;14.50;13.10;;;;;;;;;;5091642;28;20052;-58
2024/03/07 10:30:45;;;;;;;14.23;12.82;;;;;;;;;;5090610;28;20489;-58
2024/03/07 10:33:14;;;;;;;14.82;13.43;;;;;;;;;;5088442;28;20055;-58
2024/03/07 10:35:40;;;;;;;15.60;13.98;;;;;;;;;;5090696;28;20059;-58
2024/03/07 10:38:07;;;;;;;15.93;14.32;;;;;;;;;;5091989;28;20059;-57
2024/03/07 10:40:35;;;;;;;15.38;12.95;;;;;;;;;;5092175;28;20374;-56
2024/03/07 10:43:09;;;;;;;15.60;14.00;;;;;;;;;;5091750;28;20055;-57
2024/03/07 10:45:38;;;;;;;13.45;12.07;;;;;;;;;;5090852;28;20063;-57
2024/03/07 10:48:09;;;;;;;14.75;13.25;;;;;;;;;;5093669;28;20036;-57
2024/03/07 10:50:40;;;;;;;13.88;12.45;;;;;;;;;;5096197;28;20048;-57
2024/03/07 10:53:11;;;;;;;14.70;13.20;;;;;;;;;;5095768;28;20052;-59
2024/03/07 10:55:41;;;;;;;13.80;12.38;;;;;;;;;;5093149;28;20056;-57
2024/03/07 10:58:15;;;;;;;14.43;12.93;;;;;;;;;;5094249;28;20040;-58
2024/03/07 11:00:45;;;;;;;13.93;12.52;;;;;;;;;;5089670;28;20048;-58
2024/03/07 11:03:13;;;;;;;13.82;12.43;;;;;;;;;;5092580;28;20151;-57
2024/03/07 11:05:43;;;;;;;14.00;12.70;;;;;;;;;;5095788;28;20052;-57
2024/03/07 11:08:12;;;;;;;14.27;12.77;;;;;;;;;;5092053;28;20063;-58
2024/03/07 11:10:39;;;;;;;14.23;12.75;;;;;;;;;;5096119;28;20489;-58
2024/03/07 11:13:06;;;;;;;13.88;12.48;;;;;;;;;;5095848;28;20056;-57
2024/03/07 11:15:35;;;;;;;15.15;13.48;;;;;;;;;;5096049;28;20059;-58
2024/03/07 11:18:03;;;;;;;14.15;12.18;;;;;;;;;;5095584;28;20406;-58
2024/03/07 11:20:35;;;;;;;15.07;13.57;;;;;;;;;;5096227;28;20059;-58
2024/03/07 11:23:02;;;;;;;14.00;12.10;;;;;;;;;;5093458;28;20055;-57
2024/03/07 11:25:30;;;;;;;13.35;11.95;;;;;;;;;;5089657;28;20059;-58
2024/03/07 11:27:57;;;;;;;13.85;12.40;;;;;;;;;;5094018;28;20048;-58
2024/03/07 11:30:25;;;;;;;12.63;11.43;;;;;;;;;;5094962;28;20063;-58
2024/03/07 11:32:54;;;;;;;13.27;12.07;;;;;;;;;;5095272;28;20048;-58
2024/03/07 11:35:25;;;;;;;13.50;12.20;;;;;;;;;;5095904;28;20059;-58
2024/03/07 11:37:57;;;;;;;13.18;11.77;;;;;;;;;;5095003;28;20059;-58
2024/03/07 11:40:43;;;;;;;13.82;12.63;;;;;;;;;;5095505;28;20047;-58
2024/03/07 11:43:12;;;;;;;14.05;12.60;;;;;;;;;;5095224;28;20052;-59
2024/03/07 11:45:44;;;;;;;15.20;13.70;;;;;;;;;;5095294;28;20060;-58
2024/03/07 11:48:14;;;;;;;14.05;12.65;;;;;;;;;;5095579;28;20048;-59
2024/03/07 11:50:42;;;;;;;14.98;13.48;;;;;;;;;;5095591;28;20059;-59
2024/03/07 11:53:10;;;;;;;15.32;13.73;;;;;;;;;;5094579;28;20058;-58
2024/03/07 11:55:45;;;;;;;15.88;14.32;;;;;;;;;;5095300;28;20059;-59
2024/03/07 11:58:13;;;;;;;16.33;14.63;;;;;;;;;;5094611;28;20473;-58
2024/03/07 12:00:42;;;;;;;18.05;15.85;;;;;;;;;;5095145;28;20052;-58
2024/03/07 12:03:13;;;;;;;16.52;14.52;;;;;;;;;;5094856;28;20421;-57
2024/03/07 12:05:41;;;;;;;17.10;14.95;;;;;;;;;;5095092;28;20056;-58
2024/03/07 12:08:10;;;;;;;16.60;14.80;;;;;;;;;;5094667;28;20401;-57
2024/03/07 12:10:38;;;;;;;17.83;14.63;;;;;;;;;;5094922;28;20063;-57
2024/03/07 12:13:05;;;;;;;16.45;13.77;;;;;;;;;;5094314;28;20054;-57
2024/03/07 12:15:34;;;;;;;14.88;12.82;;;;;;;;;;5094909;28;20048;-58
2024/03/07 12:18:02;;;;;;;16.80;12.83;;;;;;;;;;5094344;28;20052;-57
2024/03/07 12:20:33;;;;;;;15.20;12.80;;;;;;;;;;5094795;28;20079;-58
2024/03/07 12:23:02;;;;;;;15.10;12.07;;;;;;;;;;5092960;28;20417;-57
2024/03/07 12:25:29;;;;;;;;;;;;;;;;;;5091472;28;20056;-57
2024/03/07 12:28:06;;;;;;;14.45;12.63;;;;;;;;;;5093054;28;19927;-57
2024/03/07 12:30:34;;;;;;;15.18;13.18;;;;;;;;;;5094361;28;20051;-57
2024/03/07 12:33:03;;;;;;;14.82;12.65;;;;;;;;;;5094335;28;20477;-57
2024/03/07 12:35:30;;;;;;;16.25;13.38;;;;;;;;;;5094680;28;20059;-57
2024/03/07 12:37:57;;;;;;;13.30;11.90;;;;;;;;;;5092989;28;20051;-57
2024/03/07 12:40:29;;;;;;;14.80;12.35;;;;;;;;;;5093739;28;20048;-57
2024/03/07 12:42:56;;;;;;;14.95;11.65;;;;;;;;;;5093952;28;20059;-57
2024/03/07 12:45:23;;;;;;;14.60;12.05;;;;;;;;;;5094082;28;20445;-57
2024/03/07 12:47:54;;;;;;;12.60;10.93;;;;;;;;;;5094364;28;20071;-57
2024/03/07 12:50:21;;;;;;;13.50;10.93;;;;;;;;;;5094180;28;20488;-57
2024/03/07 12:52:49;;;;;;;14.15;11.18;;;;;;;;;;5093347;28;20401;-57
2024/03/07 12:55:18;;;;;;;14.38;11.90;;;;;;;;;;5085442;28;20067;-57
2024/03/07 12:57:46;;;;;;;13.02;11.57;;;;;;;;;;5089913;28;20083;-59
2024/03/07 13:00:18;;;;;;;15.07;12.27;;;;;;;;;;5091851;28;20063;-56
2024/03/07 13:02:46;;;;;;;11.18;9.98;;;;;;;;;;5090129;28;20052;-56
2024/03/07 13:05:18;;;;;;;9.90;8.65;;;;;;;;;;5091732;28;20051;-56
2024/03/07 13:07:47;;;;;;;10.18;7.63;;;;;;;;;;5093498;28;20103;-56
2024/03/07 13:10:15;;;;;;;11.15;7.78;;;;;;;;;;5092942;28;20075;-58
2024/03/07 13:12:43;;;;;;;11.07;8.10;;;;;;;;;;5093582;28;20063;-58
2024/03/07 13:15:11;;;;;;;12.90;10.30;;;;;;;;;;5093768;28;20532;-58
2024/03/07 13:17:38;;;;;;;13.45;10.52;;;;;;;;;;5093929;28;20048;-58
2024/03/07 13:20:11;;;;;;;13.32;10.70;;;;;;;;;;5092944;28;20051;-58
2024/03/07 13:22:38;;;;;;;14.23;11.95;;;;;;;;;;5092111;28;20051;-58
2024/03/07 13:25:13;;;;;;;14.43;11.43;;;;;;;;;;5091566;28;20048;-58
2024/03/07 13:27:41;;;;;;;14.80;11.82;;;;;;;;;;5092945;28;20056;-57
2024/03/07 13:30:08;;;;;;;15.68;11.75;;;;;;;;;;5093405;28;20366;-58
2024/03/07 13:32:37;;;;;;;12.52;11.15;;;;;;;;;;5093122;28;20051;-57
2024/03/07 13:35:04;;;;;;;16.38;11.15;;;;;;;;;;5093096;28;20056;-58
2024/03/07 13:37:33;;;;;;;14.27;11.00;;;;;;;;;;5092620;28;20055;-58
2024/03/07 13:40:22;;;;;;;15.25;11.50;;;;;;;;;;5093234;28;20052;-58
2024/03/07 13:42:47;;;;;;;12.52;10.57;;;;;;;;;;5092792;28;20414;-58
2024/03/07 13:45:13;;;;;;;12.82;10.25;;;;;;;;;;5093341;28;20059;-58
2024/03/07 13:47:42;;;;;;;11.98;9.35;;;;;;;;;;5092724;28;20079;-59
2024/03/07 13:50:11;;;;;;;10.95;8.85;;;;;;;;;;5093196;28;20059;-58
2024/03/07 13:52:43;;;;;;;10.98;9.23;;;;;;;;;;5092125;28;20056;-59
2024/03/07 13:55:11;;;;;;;10.07;8.50;;;;;;;;;;5091928;28;20051;-59
2024/03/07 13:57:45;;;;;;;10.43;8.47;;;;;;;;;;5092690;28;20051;-57
2024/03/07 14:00:26;;;;;;;10.88;8.93;;;;;;;;;;5092425;28;20048;-57
2024/03/07 14:03:08;;;;;;;11.90;9.55;;;;;;;;;;5092781;28;20051;-57
2024/03/07 14:05:45;;;;;;;9.98;8.73;;;;;;;;;;5038006;28;20059;-57
2024/03/07 14:08:24;;;;;;;11.15;8.88;;;;;;;;;;5092272;28;20052;-57
2024/03/07 14:11:15;;;;;;;10.90;8.15;;;;;;;;;;5092798;28;20481;-57
2024/03/07 14:13:49;;;;;;;10.65;8.30;;;;;;;;;;5091914;28;20055;-57
2024/03/07 14:16:28;;;;;;;11.07;9.18;;;;;;;;;;5092814;28;20505;-57
2024/03/07 14:19:19;;;;;;;11.82;9.23;;;;;;;;;;5092006;28;20060;-57
2024/03/07 14:21:53;;;;;;;12.10;9.63;;;;;;;;;;5035380;28;20116;-58